sensor_id;sensor_type;location;lat;lon;timestamp;P1;durP1;ratioP1;P2;durP2;ratioP2
26780;SDS011;14366;49.184;8.054;2023-12-20T00:01:12;1.00;;;0.90;;
26780;SDS011;14366;49.184;8.054;2023-12-20T00:06:47;1.17;;;1.00;;
26780;SDS011;14366;49.184;8.054;2023-12-20T00:12:09;0.90;;;0.90;;
26780;SDS011;14366;49.184;8.054;2023-12-20T00:17:44;1.10;;;0.90;;
26780;SDS011;14366;49.184;8.054;2023-12-20T00:23:19;0.80;;;0.80;;
26780;SDS011;14366;49.184;8.054;2023-12-20T00:28:40;1.95;;;0.90;;
26780;SDS011;14366;49.184;8.054;2023-12-20T00:34:02;2.00;;;0.90;;
26780;SDS011;14366;49.184;8.054;2023-12-20T00:39:37;0.60;;;0.60;;
26780;SDS011;14366;49.184;8.054;2023-12-20T00:45:12;1.40;;;0.90;;
26780;SDS011;14366;49.184;8.054;2023-12-20T00:50:49;0.80;;;0.80;;
26780;SDS011;14366;49.184;8.054;2023-12-20T00:56:23;0.80;;;0.80;;
26780;SDS011;14366;49.184;8.054;2023-12-20T01:01:58;1.00;;;0.90;;
26780;SDS011;14366;49.184;8.054;2023-12-20T01:07:20;0.80;;;0.80;;
26780;SDS011;14366;49.184;8.054;2023-12-20T01:12:53;0.80;;;0.80;;
26780;SDS011;14366;49.184;8.054;2023-12-20T01:18:13;0.80;;;0.80;;
26780;SDS011;14366;49.184;8.054;2023-12-20T01:23:50;0.70;;;0.70;;
26780;SDS011;14366;49.184;8.054;2023-12-20T01:29:24;0.90;;;0.80;;
26780;SDS011;14366;49.184;8.054;2023-12-20T01:34:59;0.93;;;0.63;;
26780;SDS011;14366;49.184;8.054;2023-12-20T01:40:21;0.60;;;0.60;;
26780;SDS011;14366;49.184;8.054;2023-12-20T01:45:51;0.60;;;0.60;;
26780;SDS011;14366;49.184;8.054;2023-12-20T01:51:26;0.80;;;0.80;;
26780;SDS011;14366;49.184;8.054;2023-12-20T01:57:03;0.80;;;0.80;;
26780;SDS011;14366;49.184;8.054;2023-12-20T02:02:35;0.50;;;0.50;;
26780;SDS011;14366;49.184;8.054;2023-12-20T02:08:10;1.00;;;0.90;;
26780;SDS011;14366;49.184;8.054;2023-12-20T02:13:47;0.80;;;0.80;;
26780;SDS011;14366;49.184;8.054;2023-12-20T02:19:21;1.03;;;0.70;;
26780;SDS011;14366;49.184;8.054;2023-12-20T02:24:43;0.80;;;0.73;;
26780;SDS011;14366;49.184;8.054;2023-12-20T02:30:17;0.98;;;0.82;;
26780;SDS011;14366;49.184;8.054;2023-12-20T02:35:52;0.80;;;0.80;;
26780;SDS011;14366;49.184;8.054;2023-12-20T02:41:15;0.60;;;0.60;;
26780;SDS011;14366;49.184;8.054;2023-12-20T02:46:49;0.90;;;0.90;;
26780;SDS011;14366;49.184;8.054;2023-12-20T02:52:25;1.00;;;0.90;;
26780;SDS011;14366;49.184;8.054;2023-12-20T02:58:01;0.90;;;0.90;;
26780;SDS011;14366;49.184;8.054;2023-12-20T03:03:36;0.80;;;0.80;;
26780;SDS011;14366;49.184;8.054;2023-12-20T03:08:57;13.15;;;10.80;;
26780;SDS011;14366;49.184;8.054;2023-12-20T03:14:33;1.67;;;1.40;;
26780;SDS011;14366;49.184;8.054;2023-12-20T03:25:13;1.30;;;1.10;;
26780;SDS011;14366;49.184;8.054;2023-12-20T03:30:32;1.13;;;1.03;;
26780;SDS011;14366;49.184;8.054;2023-12-20T03:36:07;1.70;;;1.00;;
26780;SDS011;14366;49.184;8.054;2023-12-20T03:46:46;1.40;;;1.30;;
26780;SDS011;14366;49.184;8.054;2023-12-20T03:57:26;1.70;;;1.50;;
26780;SDS011;14366;49.184;8.054;2023-12-20T04:02:47;1.50;;;1.20;;
26780;SDS011;14366;49.184;8.054;2023-12-20T04:13:26;2.10;;;1.90;;
26780;SDS011;14366;49.184;8.054;2023-12-20T04:18:47;1.70;;;1.60;;
26780;SDS011;14366;49.184;8.054;2023-12-20T04:24:23;1.87;;;1.67;;
26780;SDS011;14366;49.184;8.054;2023-12-20T04:29:58;2.00;;;1.80;;
26780;SDS011;14366;49.184;8.054;2023-12-20T04:35:35;2.20;;;2.00;;
26780;SDS011;14366;49.184;8.054;2023-12-20T04:41:10;2.47;;;2.10;;
26780;SDS011;14366;49.184;8.054;2023-12-20T04:46:45;3.00;;;2.50;;
26780;SDS011;14366;49.184;8.054;2023-12-20T04:52:07;2.55;;;2.20;;
26780;SDS011;14366;49.184;8.054;2023-12-20T04:57:43;2.57;;;2.33;;
26780;SDS011;14366;49.184;8.054;2023-12-20T05:03:03;2.40;;;2.20;;
26780;SDS011;14366;49.184;8.054;2023-12-20T05:08:40;2.50;;;2.05;;
26780;SDS011;14366;49.184;8.054;2023-12-20T05:14:16;2.40;;;1.93;;
26780;SDS011;14366;49.184;8.054;2023-12-20T05:19:37;2.20;;;1.80;;
26780;SDS011;14366;49.184;8.054;2023-12-20T05:30:04;2.37;;;2.17;;
26780;SDS011;14366;49.184;8.054;2023-12-20T05:35:36;2.80;;;2.60;;
26780;SDS011;14366;49.184;8.054;2023-12-20T05:40:56;3.20;;;2.90;;
26780;SDS011;14366;49.184;8.054;2023-12-20T05:46:17;3.30;;;3.00;;
26780;SDS011;14366;49.184;8.054;2023-12-20T05:51:53;2.60;;;2.40;;
26780;SDS011;14366;49.184;8.054;2023-12-20T05:57:13;3.13;;;2.80;;
26780;SDS011;14366;49.184;8.054;2023-12-20T06:02:34;3.50;;;2.70;;
26780;SDS011;14366;49.184;8.054;2023-12-20T06:08:10;3.00;;;2.50;;
26780;SDS011;14366;49.184;8.054;2023-12-20T06:13:30;3.93;;;2.60;;
26780;SDS011;14366;49.184;8.054;2023-12-20T06:19:03;2.95;;;2.55;;
26780;SDS011;14366;49.184;8.054;2023-12-20T06:24:38;2.30;;;2.10;;
26780;SDS011;14366;49.184;8.054;2023-12-20T06:30:13;3.25;;;2.50;;
26780;SDS011;14366;49.184;8.054;2023-12-20T06:35:50;3.20;;;2.33;;
26780;SDS011;14366;49.184;8.054;2023-12-20T06:41:25;3.97;;;2.20;;
26780;SDS011;14366;49.184;8.054;2023-12-20T06:46:45;3.00;;;2.40;;
26780;SDS011;14366;49.184;8.054;2023-12-20T06:52:21;2.53;;;2.30;;
26780;SDS011;14366;49.184;8.054;2023-12-20T06:57:56;3.30;;;2.40;;
26780;SDS011;14366;49.184;8.054;2023-12-20T07:03:16;3.50;;;2.45;;
26780;SDS011;14366;49.184;8.054;2023-12-20T07:08:53;2.83;;;2.20;;
26780;SDS011;14366;49.184;8.054;2023-12-20T07:14:29;3.23;;;2.40;;
26780;SDS011;14366;49.184;8.054;2023-12-20T07:20:06;3.20;;;2.30;;
26780;SDS011;14366;49.184;8.054;2023-12-20T07:25:44;2.90;;;2.30;;
26780;SDS011;14366;49.184;8.054;2023-12-20T07:31:18;5.57;;;2.63;;
26780;SDS011;14366;49.184;8.054;2023-12-20T07:36:38;5.70;;;2.40;;
26780;SDS011;14366;49.184;8.054;2023-12-20T07:42:00;4.90;;;2.70;;
26780;SDS011;14366;49.184;8.054;2023-12-20T07:47:34;5.00;;;2.43;;
26780;SDS011;14366;49.184;8.054;2023-12-20T07:52:54;5.25;;;2.00;;
26780;SDS011;14366;49.184;8.054;2023-12-20T07:58:13;4.67;;;1.93;;
26780;SDS011;14366;49.184;8.054;2023-12-20T08:03:48;4.13;;;1.97;;
26780;SDS011;14366;49.184;8.054;2023-12-20T08:09:22;3.35;;;1.70;;
26780;SDS011;14366;49.184;8.054;2023-12-20T08:14:59;5.87;;;1.73;;
26780;SDS011;14366;49.184;8.054;2023-12-20T08:20:34;4.30;;;1.70;;
26780;SDS011;14366;49.184;8.054;2023-12-20T08:25:54;4.23;;;1.60;;
26780;SDS011;14366;49.184;8.054;2023-12-20T08:31:31;6.00;;;2.60;;
26780;SDS011;14366;49.184;8.054;2023-12-20T08:37:06;5.00;;;2.20;;
26780;SDS011;14366;49.184;8.054;2023-12-20T08:42:41;6.05;;;2.15;;
26780;SDS011;14366;49.184;8.054;2023-12-20T08:48:04;5.20;;;2.57;;
26780;SDS011;14366;49.184;8.054;2023-12-20T08:53:36;5.97;;;2.40;;
26780;SDS011;14366;49.184;8.054;2023-12-20T08:59:08;7.23;;;2.40;;
26780;SDS011;14366;49.184;8.054;2023-12-20T09:09:32;5.03;;;2.60;;
26780;SDS011;14366;49.184;8.054;2023-12-20T09:15:06;7.35;;;2.45;;
26780;SDS011;14366;49.184;8.054;2023-12-20T09:20:26;6.60;;;2.47;;
26780;SDS011;14366;49.184;8.054;2023-12-20T09:30:50;5.30;;;2.30;;
26780;SDS011;14366;49.184;8.054;2023-12-20T09:41:56;5.83;;;1.97;;
26780;SDS011;14366;49.184;8.054;2023-12-20T09:52:31;4.05;;;2.30;;
26780;SDS011;14366;49.184;8.054;2023-12-20T09:58:03;6.23;;;2.03;;
26780;SDS011;14366;49.184;8.054;2023-12-20T10:03:38;5.60;;;2.00;;
26780;SDS011;14366;49.184;8.054;2023-12-20T10:09:14;5.20;;;2.30;;
26780;SDS011;14366;49.184;8.054;2023-12-20T10:14:49;4.68;;;1.98;;
26780;SDS011;14366;49.184;8.054;2023-12-20T10:20:09;6.17;;;2.10;;
26780;SDS011;14366;49.184;8.054;2023-12-20T10:25:31;6.90;;;2.20;;
26780;SDS011;14366;49.184;8.054;2023-12-20T10:31:06;5.47;;;2.23;;
26780;SDS011;14366;49.184;8.054;2023-12-20T10:36:28;3.63;;;2.03;;
26780;SDS011;14366;49.184;8.054;2023-12-20T10:42:03;5.10;;;2.15;;
26780;SDS011;14366;49.184;8.054;2023-12-20T10:47:36;6.20;;;2.30;;
26780;SDS011;14366;49.184;8.054;2023-12-20T10:53:11;7.65;;;2.70;;
26780;SDS011;14366;49.184;8.054;2023-12-20T10:58:47;7.83;;;2.50;;
26780;SDS011;14366;49.184;8.054;2023-12-20T11:04:23;7.05;;;2.45;;
26780;SDS011;14366;49.184;8.054;2023-12-20T11:09:57;5.67;;;2.77;;
26780;SDS011;14366;49.184;8.054;2023-12-20T11:15:33;7.55;;;2.40;;
26780;SDS011;14366;49.184;8.054;2023-12-20T11:21:08;5.30;;;2.50;;
26780;SDS011;14366;49.184;8.054;2023-12-20T11:26:29;7.07;;;2.80;;
26780;SDS011;14366;49.184;8.054;2023-12-20T11:37:06;3.93;;;2.40;;
26780;SDS011;14366;49.184;8.054;2023-12-20T11:42:41;10.10;;;2.60;;
26780;SDS011;14366;49.184;8.054;2023-12-20T11:53:21;9.20;;;2.43;;
26780;SDS011;14366;49.184;8.054;2023-12-20T12:04:04;5.90;;;2.17;;
26780;SDS011;14366;49.184;8.054;2023-12-20T12:09:40;9.35;;;2.15;;
26780;SDS011;14366;49.184;8.054;2023-12-20T12:15:15;6.40;;;2.57;;
26780;SDS011;14366;49.184;8.054;2023-12-20T12:20:50;10.75;;;2.85;;
26780;SDS011;14366;49.184;8.054;2023-12-20T12:26:26;7.75;;;3.60;;
26780;SDS011;14366;49.184;8.054;2023-12-20T12:32:04;5.90;;;2.93;;
26780;SDS011;14366;49.184;8.054;2023-12-20T12:37:37;7.65;;;3.40;;
26780;SDS011;14366;49.184;8.054;2023-12-20T12:43:09;8.05;;;2.60;;
26780;SDS011;14366;49.184;8.054;2023-12-20T12:53:46;7.57;;;2.70;;
26780;SDS011;14366;49.184;8.054;2023-12-20T12:59:08;7.80;;;2.40;;
26780;SDS011;14366;49.184;8.054;2023-12-20T13:04:43;4.37;;;2.07;;
26780;SDS011;14366;49.184;8.054;2023-12-20T13:10:18;6.23;;;2.13;;
26780;SDS011;14366;49.184;8.054;2023-12-20T13:15:54;8.00;;;2.50;;
26780;SDS011;14366;49.184;8.054;2023-12-20T13:21:29;8.75;;;2.80;;
26780;SDS011;14366;49.184;8.054;2023-12-20T13:26:50;8.25;;;2.45;;
26780;SDS011;14366;49.184;8.054;2023-12-20T13:32:27;5.17;;;2.30;;
26780;SDS011;14366;49.184;8.054;2023-12-20T13:38:01;7.90;;;2.30;;
26780;SDS011;14366;49.184;8.054;2023-12-20T13:43:34;10.80;;;2.50;;
26780;SDS011;14366;49.184;8.054;2023-12-20T13:49:10;13.83;;;6.03;;
26780;SDS011;14366;49.184;8.054;2023-12-20T13:54:45;10.27;;;3.10;;
26780;SDS011;14366;49.184;8.054;2023-12-20T14:00:07;9.00;;;2.50;;
26780;SDS011;14366;49.184;8.054;2023-12-20T14:05:41;8.45;;;2.35;;
26780;SDS011;14366;49.184;8.054;2023-12-20T14:11:15;9.50;;;2.70;;
26780;SDS011;14366;49.184;8.054;2023-12-20T14:16:50;7.00;;;2.50;;
26780;SDS011;14366;49.184;8.054;2023-12-20T14:22:13;8.40;;;1.90;;
26780;SDS011;14366;49.184;8.054;2023-12-20T14:27:47;9.37;;;1.90;;
26780;SDS011;14366;49.184;8.054;2023-12-20T14:33:07;8.67;;;2.40;;
26780;SDS011;14366;49.184;8.054;2023-12-20T14:38:29;8.20;;;2.80;;
26780;SDS011;14366;49.184;8.054;2023-12-20T14:44:00;8.20;;;1.83;;
26780;SDS011;14366;49.184;8.054;2023-12-20T14:49:35;7.63;;;2.03;;
26780;SDS011;14366;49.184;8.054;2023-12-20T14:55:12;8.90;;;2.85;;
26780;SDS011;14366;49.184;8.054;2023-12-20T15:00:46;6.23;;;2.60;;
26780;SDS011;14366;49.184;8.054;2023-12-20T15:06:19;6.23;;;2.10;;
26780;SDS011;14366;49.184;8.054;2023-12-20T15:11:39;10.87;;;2.33;;
26780;SDS011;14366;49.184;8.054;2023-12-20T15:22:33;10.15;;;2.60;;
26780;SDS011;14366;49.184;8.054;2023-12-20T15:27:56;8.30;;;1.90;;
26780;SDS011;14366;49.184;8.054;2023-12-20T15:33:28;11.67;;;2.53;;
26780;SDS011;14366;49.184;8.054;2023-12-20T15:38:49;6.83;;;2.30;;
26780;SDS011;14366;49.184;8.054;2023-12-20T15:44:12;8.00;;;2.60;;
26780;SDS011;14366;49.184;8.054;2023-12-20T15:49:46;7.07;;;2.37;;
26780;SDS011;14366;49.184;8.054;2023-12-20T15:55:07;12.75;;;3.40;;
26780;SDS011;14366;49.184;8.054;2023-12-20T16:00:30;10.23;;;2.97;;
26780;SDS011;14366;49.184;8.054;2023-12-20T16:06:05;10.40;;;2.80;;
26780;SDS011;14366;49.184;8.054;2023-12-20T16:11:40;7.27;;;3.30;;
26780;SDS011;14366;49.184;8.054;2023-12-20T16:22:22;9.00;;;2.70;;
26780;SDS011;14366;49.184;8.054;2023-12-20T16:32:58;7.60;;;2.20;;
26780;SDS011;14366;49.184;8.054;2023-12-20T16:38:31;5.90;;;2.65;;
26780;SDS011;14366;49.184;8.054;2023-12-20T16:44:06;8.10;;;2.40;;
26780;SDS011;14366;49.184;8.054;2023-12-20T16:49:26;8.83;;;2.70;;
26780;SDS011;14366;49.184;8.054;2023-12-20T16:55:03;9.47;;;2.97;;
26780;SDS011;14366;49.184;8.054;2023-12-20T17:00:37;8.30;;;3.20;;
26780;SDS011;14366;49.184;8.054;2023-12-20T17:06:12;8.15;;;2.75;;
26780;SDS011;14366;49.184;8.054;2023-12-20T17:11:45;6.63;;;2.10;;
26780;SDS011;14366;49.184;8.054;2023-12-20T17:17:18;9.50;;;2.47;;
26780;SDS011;14366;49.184;8.054;2023-12-20T17:22:38;6.47;;;2.40;;
26780;SDS011;14366;49.184;8.054;2023-12-20T17:27:59;5.47;;;2.67;;
26780;SDS011;14366;49.184;8.054;2023-12-20T17:33:34;7.43;;;2.60;;
26780;SDS011;14366;49.184;8.054;2023-12-20T17:38:54;8.80;;;3.00;;
26780;SDS011;14366;49.184;8.054;2023-12-20T17:44:30;5.00;;;2.55;;
26780;SDS011;14366;49.184;8.054;2023-12-20T17:50:05;7.25;;;3.00;;
26780;SDS011;14366;49.184;8.054;2023-12-20T17:55:37;10.80;;;2.70;;
26780;SDS011;14366;49.184;8.054;2023-12-20T18:06:03;10.30;;;2.60;;
26780;SDS011;14366;49.184;8.054;2023-12-20T18:11:39;8.85;;;2.60;;
26780;SDS011;14366;49.184;8.054;2023-12-20T18:16:59;5.80;;;2.60;;
26780;SDS011;14366;49.184;8.054;2023-12-20T18:22:20;7.45;;;2.50;;
26780;SDS011;14366;49.184;8.054;2023-12-20T18:27:55;8.85;;;3.00;;
26780;SDS011;14366;49.184;8.054;2023-12-20T18:33:30;9.20;;;3.00;;
26780;SDS011;14366;49.184;8.054;2023-12-20T18:39:06;13.55;;;5.40;;
26780;SDS011;14366;49.184;8.054;2023-12-20T18:44:41;4.80;;;2.00;;
26780;SDS011;14366;49.184;8.054;2023-12-20T18:50:16;5.07;;;2.17;;
26780;SDS011;14366;49.184;8.054;2023-12-20T18:55:38;6.93;;;2.80;;
26780;SDS011;14366;49.184;8.054;2023-12-20T19:01:13;6.13;;;2.73;;
26780;SDS011;14366;49.184;8.054;2023-12-20T19:06:48;7.30;;;2.20;;
26780;SDS011;14366;49.184;8.054;2023-12-20T19:12:07;5.05;;;2.40;;
26780;SDS011;14366;49.184;8.054;2023-12-20T19:17:42;5.37;;;2.40;;
26780;SDS011;14366;49.184;8.054;2023-12-20T19:23:17;7.57;;;2.50;;
26780;SDS011;14366;49.184;8.054;2023-12-20T19:28:52;4.33;;;2.20;;
26780;SDS011;14366;49.184;8.054;2023-12-20T19:34:24;4.30;;;2.20;;
26780;SDS011;14366;49.184;8.054;2023-12-20T19:44:53;8.87;;;2.47;;
26780;SDS011;14366;49.184;8.054;2023-12-20T19:50:28;8.20;;;2.23;;
26780;SDS011;14366;49.184;8.054;2023-12-20T19:55:49;5.67;;;2.30;;
26780;SDS011;14366;49.184;8.054;2023-12-20T20:01:10;6.43;;;2.70;;
26780;SDS011;14366;49.184;8.054;2023-12-20T20:06:45;7.10;;;3.00;;
26780;SDS011;14366;49.184;8.054;2023-12-20T20:12:21;4.70;;;2.00;;
26780;SDS011;14366;49.184;8.054;2023-12-20T20:17:57;6.57;;;3.53;;
26780;SDS011;14366;49.184;8.054;2023-12-20T20:23:32;3.03;;;2.10;;
26780;SDS011;14366;49.184;8.054;2023-12-20T20:28:52;4.70;;;2.20;;
26780;SDS011;14366;49.184;8.054;2023-12-20T20:34:13;4.07;;;1.87;;
26780;SDS011;14366;49.184;8.054;2023-12-20T20:39:49;7.45;;;2.10;;
26780;SDS011;14366;49.184;8.054;2023-12-20T20:45:24;4.40;;;2.60;;
26780;SDS011;14366;49.184;8.054;2023-12-20T20:50:47;3.70;;;1.40;;
26780;SDS011;14366;49.184;8.054;2023-12-20T20:56:22;2.10;;;1.23;;
26780;SDS011;14366;49.184;8.054;2023-12-20T21:07:04;2.33;;;1.42;;
26780;SDS011;14366;49.184;8.054;2023-12-20T21:12:39;1.50;;;1.06;;
26780;SDS011;14366;49.184;8.054;2023-12-20T21:18:14;2.73;;;1.30;;
26780;SDS011;14366;49.184;8.054;2023-12-20T21:23:51;2.55;;;1.60;;
26780;SDS011;14366;49.184;8.054;2023-12-20T21:29:25;2.90;;;1.70;;
26780;SDS011;14366;49.184;8.054;2023-12-20T21:35:00;3.35;;;1.62;;
26780;SDS011;14366;49.184;8.054;2023-12-20T21:40:38;1.77;;;1.30;;
26780;SDS011;14366;49.184;8.054;2023-12-20T21:46:10;1.60;;;1.07;;
26780;SDS011;14366;49.184;8.054;2023-12-20T21:51:31;2.40;;;1.20;;
26780;SDS011;14366;49.184;8.054;2023-12-20T21:57:09;2.30;;;1.70;;
26780;SDS011;14366;49.184;8.054;2023-12-20T22:02:40;9.35;;;6.60;;
26780;SDS011;14366;49.184;8.054;2023-12-20T22:08:00;6.07;;;4.37;;
26780;SDS011;14366;49.184;8.054;2023-12-20T22:13:23;8.85;;;6.20;;
26780;SDS011;14366;49.184;8.054;2023-12-20T22:18:59;6.70;;;3.30;;
26780;SDS011;14366;49.184;8.054;2023-12-20T22:24:30;7.00;;;2.30;;
26780;SDS011;14366;49.184;8.054;2023-12-20T22:29:52;3.57;;;1.90;;
26780;SDS011;14366;49.184;8.054;2023-12-20T22:35:23;5.17;;;1.77;;
26780;SDS011;14366;49.184;8.054;2023-12-20T22:40:59;2.80;;;1.50;;
26780;SDS011;14366;49.184;8.054;2023-12-20T22:46:21;2.20;;;1.37;;
26780;SDS011;14366;49.184;8.054;2023-12-20T22:51:57;3.10;;;2.10;;
26780;SDS011;14366;49.184;8.054;2023-12-20T22:57:17;3.20;;;2.30;;
26780;SDS011;14366;49.184;8.054;2023-12-20T23:07:59;3.75;;;2.50;;
26780;SDS011;14366;49.184;8.054;2023-12-20T23:13:34;3.90;;;2.00;;
26780;SDS011;14366;49.184;8.054;2023-12-20T23:23:56;3.60;;;2.20;;
26780;SDS011;14366;49.184;8.054;2023-12-20T23:29:32;11.27;;;6.20;;
26780;SDS011;14366;49.184;8.054;2023-12-20T23:34:52;6.50;;;4.00;;
26780;SDS011;14366;49.184;8.054;2023-12-20T23:40:14;3.73;;;2.23;;
26780;SDS011;14366;49.184;8.054;2023-12-20T23:45:46;3.50;;;2.23;;
26780;SDS011;14366;49.184;8.054;2023-12-20T23:51:06;4.20;;;2.27;;
